Time;durP1;ratioP1;P1;durP2;ratioP2;P2;SDS_P1;SDS_P2;PMS_P1;PMS_P2;Temp;Humidity;BMP_temperature;BMP_pressure;BME280_temperature;BME280_humidity;BME280_pressure;Samples;Min_cycle;Max_cycle;Signal;HPM_P1;HPM_P2
2021/03/21 00:03:15;;;;;;;80.30;27.00;;;;;;;;;;8227672;28;20110;-65
2021/03/21 00:07:20;;;;;;;82.60;27.10;;;;;;;;;;8228022;28;20456;-67
2021/03/21 00:11:25;;;;;;;89.47;29.33;;;;;;;;;;8228313;28;20560;-66
2021/03/21 00:15:30;;;;;;;86.38;28.60;;;;;;;;;;8227278;28;20408;-66
2021/03/21 00:19:33;;;;;;;107.07;30.58;;;;;;;;;;8226368;28;20416;-66
2021/03/21 00:23:38;;;;;;;98.53;29.45;;;;;;;;;;8227883;28;20472;-65
2021/03/21 00:27:42;;;;;;;85.40;27.55;;;;;;;;;;8226322;28;20487;-66
2021/03/21 00:31:47;;;;;;;90.53;27.67;;;;;;;;;;8226483;28;20365;-65
2021/03/21 00:35:53;;;;;;;83.65;27.58;;;;;;;;;;8228372;28;20372;-67
2021/03/21 00:39:58;;;;;;;97.22;29.00;;;;;;;;;;8227652;28;20057;-65
2021/03/21 00:44:03;;;;;;;93.00;30.20;;;;;;;;;;8226539;28;20364;-68
2021/03/21 00:48:33;;;;;;;109.78;32.10;;;;;;;;;;8227396;28;20457;-66
2021/03/21 00:52:38;;;;;;;97.10;31.80;;;;;;;;;;8225766;28;20041;-66
2021/03/21 00:56:43;;;;;;;105.43;32.00;;;;;;;;;;8225126;28;20068;-66
2021/03/21 01:00:55;;;;;;;105.57;33.30;;;;;;;;;;8225206;28;20380;-66
2021/03/21 01:05:00;;;;;;;103.15;32.13;;;;;;;;;;8245939;28;20379;-66
2021/03/21 01:09:14;;;;;;;115.45;33.38;;;;;;;;;;8258278;28;20486;-66
2021/03/21 01:13:17;;;;;;;113.53;34.25;;;;;;;;;;8258616;28;20337;-66
2021/03/21 01:17:21;;;;;;;104.97;36.22;;;;;;;;;;8258003;28;20471;-66
2021/03/21 01:21:31;;;;;;;111.07;34.95;;;;;;;;;;8257211;28;20364;-66
2021/03/21 01:25:36;;;;;;;113.07;33.00;;;;;;;;;;8258865;28;20484;-67
2021/03/21 01:29:40;;;;;;;122.18;33.17;;;;;;;;;;8258023;28;20352;-71
2021/03/21 01:33:44;;;;;;;107.88;32.28;;;;;;;;;;8258184;28;20067;-66
2021/03/21 01:37:50;;;;;;;106.35;33.25;;;;;;;;;;8257820;28;20456;-66
2021/03/21 01:42:05;;;;;;;101.32;33.60;;;;;;;;;;8255908;28;20052;-66
2021/03/21 01:46:18;;;;;;;113.28;32.85;;;;;;;;;;8257441;28;20427;-66
2021/03/21 01:50:53;;;;;;;105.82;33.13;;;;;;;;;;8255997;28;20451;-66
2021/03/21 01:54:59;;;;;;;125.60;34.25;;;;;;;;;;8255146;28;20349;-66
2021/03/21 01:59:18;;;;;;;110.57;33.63;;;;;;;;;;8259125;28;20471;-66
2021/03/21 02:03:23;;;;;;;116.50;34.78;;;;;;;;;;8254977;28;20476;-66
2021/03/21 02:07:46;;;;;;;114.95;32.13;;;;;;;;;;8257645;28;20356;-66
2021/03/21 02:12:22;;;;;;;106.35;33.55;;;;;;;;;;8263605;28;20472;-66
2021/03/21 02:16:36;;;;;;;115.90;32.72;;;;;;;;;;8264651;28;20068;-66
2021/03/21 02:21:16;;;;;;;114.38;36.05;;;;;;;;;;8261462;28;20472;-65
2021/03/21 02:26:05;;;;;;;112.43;35.85;;;;;;;;;;8264196;28;20380;-66
2021/03/21 02:30:41;;;;;;;104.20;35.22;;;;;;;;;;8262868;28;20455;-67
2021/03/21 02:35:12;;;;;;;104.93;32.58;;;;;;;;;;8262279;28;20492;-66
2021/03/21 02:39:49;;;;;;;124.70;34.75;;;;;;;;;;8263786;28;20349;-66
2021/03/21 02:44:08;;;;;;;111.85;32.35;;;;;;;;;;8262050;28;20410;-66
2021/03/21 02:48:26;;;;;;;116.57;35.03;;;;;;;;;;8260967;28;20490;-65
2021/03/21 02:52:46;;;;;;;106.10;31.23;;;;;;;;;;8262565;28;20476;-67
2021/03/21 02:57:02;;;;;;;98.30;32.85;;;;;;;;;;8263381;28;20470;-66
2021/03/21 03:01:14;;;;;;;114.38;35.28;;;;;;;;;;8260706;28;20444;-66
2021/03/21 03:05:33;;;;;;;108.15;33.10;;;;;;;;;;8260880;28;20399;-65
2021/03/21 03:09:49;;;;;;;108.07;33.30;;;;;;;;;;8259722;28;20352;-66
2021/03/21 03:14:02;;;;;;;106.43;35.45;;;;;;;;;;8260172;28;20056;-66
2021/03/21 03:18:38;;;;;;;131.10;36.65;;;;;;;;;;8259586;28;20452;-66
2021/03/21 03:23:11;;;;;;;105.53;34.20;;;;;;;;;;8245060;28;20424;-69
2021/03/21 03:27:31;;;;;;;106.78;36.15;;;;;;;;;;8262355;28;20386;-66
2021/03/21 03:31:45;;;;;;;126.63;35.47;;;;;;;;;;8260150;28;20360;-67
2021/03/21 03:35:51;;;;;;;117.40;36.85;;;;;;;;;;8260312;28;20488;-67
2021/03/21 03:39:55;;;;;;;118.53;36.85;;;;;;;;;;8260775;28;20114;-66
2021/03/21 03:44:21;;;;;;;110.20;35.58;;;;;;;;;;8260213;28;20444;-66
2021/03/21 03:48:51;;;;;;;120.68;35.22;;;;;;;;;;8260595;28;20076;-66
2021/03/21 03:53:17;;;;;;;98.25;32.30;;;;;;;;;;8260688;28;20370;-66
2021/03/21 03:57:36;;;;;;;106.65;34.35;;;;;;;;;;8258753;28;20414;-66
2021/03/21 04:01:53;;;;;;;99.03;33.90;;;;;;;;;;8259835;28;20475;-65
2021/03/21 04:06:06;;;;;;;95.32;31.40;;;;;;;;;;8259979;28;20436;-66
2021/03/21 04:10:21;;;;;;;108.75;33.35;;;;;;;;;;8260374;28;20360;-65
2021/03/21 04:15:01;;;;;;;92.00;32.50;;;;;;;;;;8258462;28;20383;-66
2021/03/21 04:19:10;;;;;;;107.53;32.78;;;;;;;;;;8257790;28;20506;-65
2021/03/21 04:23:56;;;;;;;102.72;32.75;;;;;;;;;;8257723;28;20460;-66
2021/03/21 04:28:09;;;;;;;97.25;33.33;;;;;;;;;;8257503;28;20376;-66
2021/03/21 04:32:40;;;;;;;122.15;35.53;;;;;;;;;;8256637;28;20102;-66
2021/03/21 04:36:53;;;;;;;97.90;30.40;;;;;;;;;;8258853;28;20067;-65
2021/03/21 04:40:59;;;;;;;86.90;29.58;;;;;;;;;;8258438;28;20056;-66
2021/03/21 04:45:10;;;;;;;114.40;31.50;;;;;;;;;;8256466;28;20115;-66
2021/03/21 04:49:14;;;;;;;95.57;32.95;;;;;;;;;;8272735;28;20371;-66
2021/03/21 04:53:39;;;;;;;156.75;42.70;;;;;;;;;;8258574;28;20451;-66
2021/03/21 04:57:49;;;;;;;372.98;98.00;;;;;;;;;;8257094;28;20071;-67
2021/03/21 05:02:16;;;;;;;218.73;69.65;;;;;;;;;;8258678;28;20084;-67
2021/03/21 05:06:44;;;;;;;95.38;39.20;;;;;;;;;;8257829;28;20378;-67
2021/03/21 05:10:56;;;;;;;62.15;26.92;;;;;;;;;;8260562;28;20075;-67
2021/03/21 05:15:21;;;;;;;50.33;19.05;;;;;;;;;;8259133;28;20459;-67
2021/03/21 05:20:04;;;;;;;46.88;17.40;;;;;;;;;;8257129;28;20053;-68
2021/03/21 05:24:17;;;;;;;38.13;16.20;;;;;;;;;;8257262;28;20371;-67
2021/03/21 05:28:47;;;;;;;36.92;15.15;;;;;;;;;;8255585;28;20460;-66
2021/03/21 05:32:53;;;;;;;33.35;13.32;;;;;;;;;;8258048;28;20463;-67
2021/03/21 05:37:03;;;;;;;34.92;14.70;;;;;;;;;;8259512;28;20371;-67
2021/03/21 05:41:32;;;;;;;30.30;13.80;;;;;;;;;;8257587;28;20355;-67
2021/03/21 05:45:48;;;;;;;21.27;9.93;;;;;;;;;;8257111;28;20071;-68
2021/03/21 05:50:45;;;;;;;19.35;9.50;;;;;;;;;;8260394;28;20429;-67
2021/03/21 05:55:18;;;;;;;32.30;13.00;;;;;;;;;;8257463;28;20463;-67
2021/03/21 06:00:12;;;;;;;15.95;9.05;;;;;;;;;;8257089;28;20452;-66
2021/03/21 06:04:48;;;;;;;20.35;10.27;;;;;;;;;;8257373;28;20471;-68
2021/03/21 06:10:25;;;;;;;15.80;7.47;;;;;;;;;;8249614;28;20055;-66
2021/03/21 06:15:01;;;;;;;16.05;7.00;;;;;;;;;;8242611;28;20463;-66
2021/03/21 06:19:41;;;;;;;19.05;8.60;;;;;;;;;;8244923;28;20075;-68
2021/03/21 06:24:17;;;;;;;14.20;6.80;;;;;;;;;;8244102;28;20479;-67
2021/03/21 06:29:18;;;;;;;18.15;7.88;;;;;;;;;;8253117;28;20510;-69
2021/03/21 06:33:47;;;;;;;23.02;8.57;;;;;;;;;;8221859;28;20440;-67
2021/03/21 06:38:16;;;;;;;14.63;6.20;;;;;;;;;;8257227;28;20053;-68
2021/03/21 06:42:51;;;;;;;16.95;7.93;;;;;;;;;;8255103;28;20057;-68
2021/03/21 06:47:35;;;;;;;20.95;4.47;;;;;;;;;;8256336;28;20365;-69
2021/03/21 06:52:07;;;;;;;16.25;6.70;;;;;;;;;;8255758;28;20111;-67
2021/03/21 06:56:32;;;;;;;15.93;5.68;;;;;;;;;;8257909;28;20049;-68
2021/03/21 07:00:49;;;;;;;19.17;5.93;;;;;;;;;;8259659;28;20373;-68
2021/03/21 07:05:15;;;;;;;9.70;4.47;;;;;;;;;;8260798;28;20502;-68
2021/03/21 07:09:48;;;;;;;25.17;5.25;;;;;;;;;;8262037;28;20379;-68
2021/03/21 07:14:23;;;;;;;17.25;7.07;;;;;;;;;;8261214;28;20458;-69
2021/03/21 07:19:15;;;;;;;16.88;4.68;;;;;;;;;;8261682;28;20490;-67
2021/03/21 07:24:35;;;;;;;23.45;8.15;;;;;;;;;;8261244;28;20355;-68
2021/03/21 07:28:45;;;;;;;8.13;4.50;;;;;;;;;;8256147;28;20400;-68
2021/03/21 07:33:03;;;;;;;13.23;6.28;;;;;;;;;;8259799;28;20486;-69
2021/03/21 07:37:19;;;;;;;17.10;5.93;;;;;;;;;;8262346;28;20363;-68
2021/03/21 07:42:11;;;;;;;15.60;6.53;;;;;;;;;;8260810;28;20383;-68
2021/03/21 07:46:29;;;;;;;17.23;5.93;;;;;;;;;;8260856;28;20466;-69
2021/03/21 07:50:51;;;;;;;16.02;7.25;;;;;;;;;;8260341;28;20468;-68
2021/03/21 07:55:01;;;;;;;15.63;7.60;;;;;;;;;;8260020;28;20386;-69
2021/03/21 07:59:15;;;;;;;18.25;6.65;;;;;;;;;;8259095;28;20357;-68
2021/03/21 08:03:55;;;;;;;20.60;7.32;;;;;;;;;;8258815;28;20410;-68
2021/03/21 08:08:00;;;;;;;22.55;8.48;;;;;;;;;;8257819;28;20341;-68
2021/03/21 08:12:25;;;;;;;17.08;6.88;;;;;;;;;;8261496;28;20648;-69
2021/03/21 08:16:46;;;;;;;29.70;9.73;;;;;;;;;;8262319;28;20355;-69
2021/03/21 08:20:55;;;;;;;13.38;6.40;;;;;;;;;;8259426;28;20410;-70
2021/03/21 08:25:15;;;;;;;299.50;121.75;;;;;;;;;;8259454;28;20049;-69
2021/03/21 08:29:26;;;;;;;104.60;44.25;;;;;;;;;;8257336;28;20382;-70
2021/03/21 08:33:36;;;;;;;115.53;49.47;;;;;;;;;;8257449;28;20376;-68
2021/03/21 08:37:47;;;;;;;185.43;50.33;;;;;;;;;;8257651;28;20368;-69
2021/03/21 08:41:58;;;;;;;;;;;;;;;;;;8259265;28;20065;-69
2021/03/21 08:46:02;;;;;;;20.35;7.82;;;;;;;;;;8259862;28;20328;-69
2021/03/21 08:50:34;;;;;;;41.83;12.88;;;;;;;;;;8258626;28;20407;-69
2021/03/21 08:54:38;;;;;;;23.08;12.45;;;;;;;;;;8257850;28;20452;-69
2021/03/21 08:58:49;;;;;;;42.83;20.45;;;;;;;;;;8258544;28;20553;-70
2021/03/21 09:02:54;;;;;;;36.97;13.88;;;;;;;;;;8258079;28;20479;-69
2021/03/21 09:07:24;;;;;;;24.10;8.32;;;;;;;;;;8256628;28;20478;-69
2021/03/21 09:11:35;;;;;;;11.32;6.55;;;;;;;;;;8256726;28;20490;-69
2021/03/21 09:16:00;;;;;;;12.23;6.68;;;;;;;;;;8260047;28;20469;-70
2021/03/21 09:20:07;;;;;;;18.95;10.43;;;;;;;;;;8256620;28;20478;-69
2021/03/21 09:24:22;;;;;;;27.80;11.43;;;;;;;;;;8261763;28;20478;-69
2021/03/21 09:28:33;;;;;;;54.65;19.17;;;;;;;;;;8258322;28;20076;-70
2021/03/21 09:32:37;;;;;;;26.35;12.50;;;;;;;;;;8258481;28;20557;-69
2021/03/21 09:37:07;;;;;;;41.13;19.33;;;;;;;;;;8255992;28;20426;-70
2021/03/21 09:41:15;;;;;;;214.77;72.70;;;;;;;;;;8257629;28;20395;-68
2021/03/21 09:45:21;;;;;;;121.82;51.35;;;;;;;;;;8256978;28;20057;-68
2021/03/21 09:49:54;;;;;;;34.60;17.88;;;;;;;;;;8255229;28;20057;-69
2021/03/21 09:54:12;;;;;;;12.43;5.50;;;;;;;;;;8256889;28;20068;-69
2021/03/21 09:59:00;;;;;;;11.65;5.15;;;;;;;;;;8258727;28;20124;-68
2021/03/21 10:03:21;;;;;;;24.08;11.27;;;;;;;;;;8256266;28;20475;-68
2021/03/21 10:07:59;;;;;;;31.52;9.82;;;;;;;;;;8241684;28;20080;-68
2021/03/21 10:12:10;;;;;;;16.40;7.70;;;;;;;;;;8273472;28;20068;-69
2021/03/21 10:16:26;;;;;;;24.92;9.02;;;;;;;;;;8241170;28;20376;-66
2021/03/21 10:21:04;;;;;;;60.30;19.33;;;;;;;;;;8257505;28;20329;-68
2021/03/21 10:25:12;;;;;;;18.02;8.55;;;;;;;;;;8258545;28;20108;-68
2021/03/21 10:29:17;;;;;;;24.17;9.73;;;;;;;;;;8258405;28;20624;-68
2021/03/21 10:33:20;;;;;;;29.35;10.38;;;;;;;;;;8263379;28;20444;-69
2021/03/21 10:37:43;;;;;;;22.48;9.18;;;;;;;;;;8262897;28;20483;-68
2021/03/21 10:42:13;;;;;;;26.48;12.38;;;;;;;;;;8262781;28;20382;-68
2021/03/21 10:46:53;;;;;;;26.13;11.85;;;;;;;;;;8263032;28;20372;-69
2021/03/21 10:51:18;;;;;;;14.60;7.35;;;;;;;;;;8260771;28;20364;-69
2021/03/21 10:55:30;;;;;;;15.63;8.48;;;;;;;;;;8277451;28;20363;-67
2021/03/21 10:59:34;;;;;;;15.00;7.65;;;;;;;;;;8262240;28;20448;-68
2021/03/21 11:03:39;;;;;;;30.42;13.65;;;;;;;;;;8260209;28;20468;-67
2021/03/21 11:07:44;;;;;;;35.17;15.02;;;;;;;;;;8262150;28;20053;-69
2021/03/21 11:11:50;;;;;;;21.85;9.52;;;;;;;;;;8262450;28;20037;-68
2021/03/21 11:15:58;;;;;;;31.80;12.80;;;;;;;;;;8261326;28;20468;-70
2021/03/21 11:20:22;;;;;;;98.75;31.27;;;;;;;;;;8260200;28;20479;-67
2021/03/21 11:24:36;;;;;;;109.95;37.03;;;;;;;;;;8261555;28;20448;-69
2021/03/21 11:28:41;;;;;;;54.88;22.08;;;;;;;;;;8262715;28;20512;-69
2021/03/21 11:32:49;;;;;;;58.78;24.77;;;;;;;;;;8261622;28;20494;-70
2021/03/21 11:37:00;;;;;;;40.95;18.30;;;;;;;;;;8261337;28;20364;-69
2021/03/21 11:41:06;;;;;;;20.10;7.90;;;;;;;;;;8262282;28;20466;-69
2021/03/21 11:45:13;;;;;;;36.00;11.38;;;;;;;;;;8258719;28;20067;-71
2021/03/21 11:49:21;;;;;;;33.85;11.93;;;;;;;;;;8262994;28;20475;-69
2021/03/21 11:53:32;;;;;;;49.22;17.83;;;;;;;;;;8259445;28;20471;-70
2021/03/21 11:58:02;;;;;;;37.88;11.88;;;;;;;;;;8262043;28;20451;-71
2021/03/21 12:02:27;;;;;;;39.05;14.20;;;;;;;;;;8260785;28;20524;-70
2021/03/21 12:06:47;;;;;;;25.20;11.48;;;;;;;;;;8260417;28;20048;-69
2021/03/21 12:10:53;;;;;;;30.70;11.52;;;;;;;;;;8259107;28;20396;-70
2021/03/21 12:14:57;;;;;;;24.40;10.75;;;;;;;;;;8259979;28;20477;-69
2021/03/21 12:19:11;;;;;;;28.63;13.32;;;;;;;;;;8259267;28;20352;-70
2021/03/21 12:23:38;;;;;;;24.95;12.77;;;;;;;;;;8261564;28;20379;-70
2021/03/21 12:27:43;;;;;;;27.65;11.70;;;;;;;;;;8260841;28;20468;-70
2021/03/21 12:31:49;;;;;;;42.63;18.30;;;;;;;;;;8259024;28;20371;-69
2021/03/21 12:35:56;;;;;;;63.80;23.05;;;;;;;;;;8258694;28;20478;-70
2021/03/21 12:40:06;;;;;;;52.35;27.73;;;;;;;;;;8258168;28;20491;-70
2021/03/21 12:44:19;;;;;;;100.47;44.63;;;;;;;;;;8259236;28;20473;-70
2021/03/21 12:48:24;;;;;;;93.50;41.17;;;;;;;;;;8259460;28;20399;-69
2021/03/21 12:52:35;;;;;;;54.65;20.95;;;;;;;;;;8258560;28;20394;-71
2021/03/21 12:56:41;;;;;;;43.95;19.20;;;;;;;;;;8258790;28;20329;-71
2021/03/21 13:00:50;;;;;;;15.40;9.02;;;;;;;;;;8260100;28;20460;-70
2021/03/21 13:04:56;;;;;;;24.52;11.50;;;;;;;;;;8258305;28;20464;-70
2021/03/21 13:09:00;;;;;;;116.25;40.53;;;;;;;;;;8257895;28;20378;-69
2021/03/21 13:13:07;;;;;;;31.73;14.05;;;;;;;;;;8258592;28;20472;-69
2021/03/21 13:17:12;;;;;;;27.20;12.20;;;;;;;;;;8257031;28;20379;-71
2021/03/21 13:21:17;;;;;;;20.48;9.68;;;;;;;;;;8257374;28;20462;-70
2021/03/21 13:25:28;;;;;;;25.98;11.35;;;;;;;;;;8255951;28;20440;-70
2021/03/21 13:29:31;;;;;;;25.38;15.25;;;;;;;;;;8257695;28;20057;-69
2021/03/21 13:33:37;;;;;;;39.70;16.55;;;;;;;;;;8254673;28;20067;-70
2021/03/21 13:37:42;;;;;;;28.02;11.25;;;;;;;;;;8256086;28;20352;-69
2021/03/21 13:41:46;;;;;;;30.23;11.70;;;;;;;;;;8257077;28;20452;-70
2021/03/21 13:45:53;;;;;;;29.65;12.85;;;;;;;;;;8256369;28;20506;-71
2021/03/21 13:49:59;;;;;;;43.25;15.60;;;;;;;;;;8253021;28;20053;-70
2021/03/21 13:54:04;;;;;;;27.83;12.60;;;;;;;;;;8256764;28;20399;-70
2021/03/21 13:58:10;;;;;;;82.60;25.90;;;;;;;;;;8256555;28;20483;-70
2021/03/21 14:02:14;;;;;;;29.40;11.25;;;;;;;;;;8256419;28;20075;-70
2021/03/21 14:06:20;;;;;;;46.70;18.20;;;;;;;;;;8263140;28;20359;-70
2021/03/21 14:10:29;;;;;;;70.10;25.83;;;;;;;;;;8263573;28;20103;-70
2021/03/21 14:14:34;;;;;;;27.48;13.48;;;;;;;;;;8262546;28;20391;-70
2021/03/21 14:18:38;;;;;;;36.33;14.52;;;;;;;;;;8261710;28;20475;-70
2021/03/21 14:22:43;;;;;;;44.67;17.30;;;;;;;;;;8263172;28;20072;-71
2021/03/21 14:26:47;;;;;;;61.33;22.02;;;;;;;;;;8262233;28;20072;-70
2021/03/21 14:30:53;;;;;;;61.97;22.70;;;;;;;;;;8277300;28;20044;-70
2021/03/21 14:34:56;;;;;;;73.82;42.45;;;;;;;;;;8257557;28;20482;-70
2021/03/21 14:39:01;;;;;;;79.68;37.08;;;;;;;;;;8246553;28;20534;-70
2021/03/21 14:43:06;;;;;;;49.17;21.10;;;;;;;;;;8250711;28;20367;-71
2021/03/21 14:47:09;;;;;;;45.40;18.88;;;;;;;;;;8244203;28;20475;-70
2021/03/21 14:51:14;;;;;;;27.40;13.35;;;;;;;;;;8244673;28;20502;-70
2021/03/21 14:55:21;;;;;;;57.10;25.80;;;;;;;;;;8243214;28;20040;-71
2021/03/21 14:59:24;;;;;;;46.50;29.63;;;;;;;;;;8259145;28;20359;-70
2021/03/21 15:03:29;;;;;;;32.55;17.00;;;;;;;;;;8249340;28;21059;-69
2021/03/21 15:07:32;;;;;;;22.10;11.38;;;;;;;;;;8235971;28;20460;-71
2021/03/21 15:11:35;;;;;;;33.08;14.52;;;;;;;;;;8243281;28;20472;-72
2021/03/21 15:15:44;;;;;;;41.80;17.15;;;;;;;;;;8241248;28;20383;-71
2021/03/21 15:19:48;;;;;;;;;;;;;;;;;;8249892;28;20488;-70
2021/03/21 15:23:52;;;;;;;31.48;16.70;;;;;;;;;;8242228;28;19943;-70
2021/03/21 15:27:55;;;;;;;33.13;16.27;;;;;;;;;;8260871;28;20045;-71
2021/03/21 15:32:02;;;;;;;33.17;16.33;;;;;;;;;;8237852;28;20036;-71
2021/03/21 15:36:08;;;;;;;39.22;19.55;;;;;;;;;;8229262;28;20464;-72
2021/03/21 15:40:29;;;;;;;49.67;24.35;;;;;;;;;;8226348;28;20476;-71
2021/03/21 15:44:33;;;;;;;31.33;16.13;;;;;;;;;;8228767;28;20356;-70
2021/03/21 15:48:38;;;;;;;35.63;15.88;;;;;;;;;;8228322;28;20346;-69
2021/03/21 15:52:43;;;;;;;63.22;21.33;;;;;;;;;;8226853;28;20475;-71
2021/03/21 15:56:48;;;;;;;131.85;45.60;;;;;;;;;;8226504;28;20045;-70
2021/03/21 16:00:55;;;;;;;104.57;37.85;;;;;;;;;;8228437;28;20460;-69
2021/03/21 16:05:00;;;;;;;64.85;28.08;;;;;;;;;;8228766;28;20415;-69
2021/03/21 16:09:04;;;;;;;58.53;27.35;;;;;;;;;;8227856;28;20472;-70
2021/03/21 16:13:12;;;;;;;48.35;19.60;;;;;;;;;;8229616;28;20502;-69
2021/03/21 16:17:17;;;;;;;36.17;18.33;;;;;;;;;;8228198;28;20360;-68
2021/03/21 16:21:23;;;;;;;83.53;35.40;;;;;;;;;;8227896;28;20484;-72
2021/03/21 16:25:32;;;;;;;179.23;59.25;;;;;;;;;;8228781;28;20474;-69
2021/03/21 16:29:37;;;;;;;155.48;52.20;;;;;;;;;;8226985;28;20057;-70
2021/03/21 16:33:42;;;;;;;184.60;82.10;;;;;;;;;;8227258;28;20449;-69
2021/03/21 16:37:54;;;;;;;231.60;75.43;;;;;;;;;;8226875;28;20468;-69
2021/03/21 16:41:58;;;;;;;150.95;51.20;;;;;;;;;;8228445;28;20408;-71
2021/03/21 16:46:02;;;;;;;170.55;52.55;;;;;;;;;;8225999;28;20049;-71
2021/03/21 16:50:09;;;;;;;218.55;64.85;;;;;;;;;;8225058;28;20175;-70
2021/03/21 16:54:13;;;;;;;50.80;21.58;;;;;;;;;;8227500;28;20511;-69
2021/03/21 16:58:17;;;;;;;82.53;27.40;;;;;;;;;;8224851;28;20455;-69
2021/03/21 17:02:20;;;;;;;125.70;39.25;;;;;;;;;;8223366;28;20487;-68
2021/03/21 17:06:25;;;;;;;113.88;42.65;;;;;;;;;;8224812;28;20416;-69
2021/03/21 17:10:36;;;;;;;56.65;22.13;;;;;;;;;;8226758;28;20116;-69
2021/03/21 17:14:42;;;;;;;54.40;22.77;;;;;;;;;;8222111;28;20381;-69
2021/03/21 17:18:46;;;;;;;62.03;26.95;;;;;;;;;;8227353;28;20442;-69
2021/03/21 17:22:56;;;;;;;74.03;27.40;;;;;;;;;;8225674;28;20054;-69
2021/03/21 17:27:02;;;;;;;57.45;26.23;;;;;;;;;;8227670;28;20371;-69
2021/03/21 17:31:10;;;;;;;59.95;24.83;;;;;;;;;;8224806;28;20053;-69
2021/03/21 17:35:15;;;;;;;70.07;28.40;;;;;;;;;;8225257;28;20467;-69
2021/03/21 17:39:19;;;;;;;40.42;19.52;;;;;;;;;;8222677;28;20365;-72
2021/03/21 17:43:25;;;;;;;54.78;26.73;;;;;;;;;;8222096;28;20499;-69
2021/03/21 17:47:29;;;;;;;87.72;32.05;;;;;;;;;;8226917;28;20491;-69
2021/03/21 17:51:34;;;;;;;67.72;25.65;;;;;;;;;;8225015;28;20041;-70
2021/03/21 17:55:38;;;;;;;58.70;24.35;;;;;;;;;;8225188;28;20460;-70
2021/03/21 17:59:43;;;;;;;45.05;20.92;;;;;;;;;;8225512;28;20485;-69
2021/03/21 18:03:49;;;;;;;60.40;27.13;;;;;;;;;;8224508;28;20365;-69
2021/03/21 18:07:54;;;;;;;50.47;23.50;;;;;;;;;;8224823;28;20049;-69
2021/03/21 18:12:18;;;;;;;56.15;25.42;;;;;;;;;;8223202;28;20476;-69
2021/03/21 18:16:26;;;;;;;43.83;23.15;;;;;;;;;;8222701;28;20490;-69
2021/03/21 18:20:31;;;;;;;38.35;19.83;;;;;;;;;;8224935;28;20391;-69
2021/03/21 18:24:36;;;;;;;61.00;28.35;;;;;;;;;;8225465;28;20384;-71
2021/03/21 18:28:40;;;;;;;54.70;23.58;;;;;;;;;;8225489;28;20411;-71
2021/03/21 18:32:46;;;;;;;319.58;178.25;;;;;;;;;;8225106;28;20499;-71
2021/03/21 18:36:52;;;;;;;163.88;100.28;;;;;;;;;;8223075;28;20049;-69
2021/03/21 18:40:57;;;;;;;74.50;49.10;;;;;;;;;;8223487;28;20045;-69
2021/03/21 18:45:01;;;;;;;47.92;22.23;;;;;;;;;;8222194;28;20497;-71
2021/03/21 18:49:05;;;;;;;80.72;41.92;;;;;;;;;;8223707;28;20522;-69
2021/03/21 18:53:11;;;;;;;72.70;38.25;;;;;;;;;;8229459;28;20053;-68
2021/03/21 18:57:16;;;;;;;47.33;26.15;;;;;;;;;;8212431;28;20483;-68
2021/03/21 19:01:20;;;;;;;62.95;29.65;;;;;;;;;;8230603;28;20483;-71
2021/03/21 19:05:26;;;;;;;83.55;34.80;;;;;;;;;;8229455;28;20464;-69
2021/03/21 19:09:31;;;;;;;72.28;32.83;;;;;;;;;;8230969;28;20426;-70
2021/03/21 19:13:36;;;;;;;78.22;35.08;;;;;;;;;;8229975;28;20076;-70
2021/03/21 19:17:41;;;;;;;126.80;50.95;;;;;;;;;;8231060;28;20338;-69
2021/03/21 19:21:50;;;;;;;99.93;39.85;;;;;;;;;;8231527;28;20449;-71
2021/03/21 19:25:55;;;;;;;118.97;42.92;;;;;;;;;;8230263;28;20337;-69
2021/03/21 19:30:00;;;;;;;116.22;46.60;;;;;;;;;;8231119;28;20360;-69
2021/03/21 19:34:05;;;;;;;185.25;109.72;;;;;;;;;;8228826;28;20460;-68
2021/03/21 19:38:10;;;;;;;456.58;209.50;;;;;;;;;;8228502;28;20453;-69
2021/03/21 19:42:14;;;;;;;421.38;115.82;;;;;;;;;;8229093;28;20491;-69
2021/03/21 19:46:19;;;;;;;164.10;46.15;;;;;;;;;;8227150;28;20084;-68
2021/03/21 19:50:27;;;;;;;183.05;48.30;;;;;;;;;;8228977;28;20488;-69
2021/03/21 19:54:34;;;;;;;221.52;56.30;;;;;;;;;;8228624;28;20468;-69
2021/03/21 19:58:39;;;;;;;97.07;33.35;;;;;;;;;;8226739;28;20372;-72
2021/03/21 20:02:44;;;;;;;289.17;64.25;;;;;;;;;;8227218;28;20041;-70
2021/03/21 20:06:50;;;;;;;371.80;76.97;;;;;;;;;;8227649;28;20061;-70
2021/03/21 20:10:54;;;;;;;265.08;55.00;;;;;;;;;;8228214;28;20498;-70
2021/03/21 20:14:59;;;;;;;340.00;76.40;;;;;;;;;;8230198;28;20053;-68
2021/03/21 20:19:07;;;;;;;483.23;113.70;;;;;;;;;;8242662;28;20364;-70
2021/03/21 20:23:12;;;;;;;258.08;73.00;;;;;;;;;;8226797;28;20492;-70
2021/03/21 20:27:17;;;;;;;238.00;73.40;;;;;;;;;;8227199;28;20404;-70
2021/03/21 20:31:21;;;;;;;410.60;103.18;;;;;;;;;;8230220;28;20662;-69
2021/03/21 20:35:29;;;;;;;155.80;55.08;;;;;;;;;;8242385;28;20361;-70
2021/03/21 20:39:32;;;;;;;298.75;72.05;;;;;;;;;;8229574;28;20472;-69
2021/03/21 20:43:37;;;;;;;287.10;72.55;;;;;;;;;;8226198;28;20368;-69
2021/03/21 20:47:42;;;;;;;408.52;101.95;;;;;;;;;;8226369;28;20333;-70
2021/03/21 20:51:48;;;;;;;305.55;79.30;;;;;;;;;;8226414;28;20368;-70
2021/03/21 20:55:55;;;;;;;179.75;55.53;;;;;;;;;;8225296;28;20456;-70
2021/03/21 20:59:59;;;;;;;136.18;52.05;;;;;;;;;;8226080;28;20479;-72
2021/03/21 21:04:05;;;;;;;107.95;42.28;;;;;;;;;;8226002;28;20517;-70
2021/03/21 21:08:17;;;;;;;83.32;35.83;;;;;;;;;;8225661;28;20468;-69
2021/03/21 21:12:22;;;;;;;75.70;34.50;;;;;;;;;;8226513;28;20391;-69
2021/03/21 21:16:25;;;;;;;134.90;44.58;;;;;;;;;;8224963;28;20456;-69
2021/03/21 21:20:43;;;;;;;113.88;44.92;;;;;;;;;;8226244;28;20464;-70
2021/03/21 21:24:47;;;;;;;84.25;37.90;;;;;;;;;;8225940;28;20453;-69
2021/03/21 21:28:53;;;;;;;108.10;37.15;;;;;;;;;;8226900;28;20075;-70
2021/03/21 21:32:58;;;;;;;67.78;32.67;;;;;;;;;;8225759;28;20463;-69
2021/03/21 21:37:03;;;;;;;81.90;35.83;;;;;;;;;;8223939;28;20402;-69
2021/03/21 21:41:08;;;;;;;107.97;44.25;;;;;;;;;;8225083;28;20456;-70
2021/03/21 21:45:16;;;;;;;182.63;55.95;;;;;;;;;;8225416;28;20049;-71
2021/03/21 21:49:20;;;;;;;205.32;60.92;;;;;;;;;;8229135;28;20380;-71
2021/03/21 21:53:25;;;;;;;213.05;68.93;;;;;;;;;;8225549;28;20512;-69
2021/03/21 21:57:29;;;;;;;194.25;56.20;;;;;;;;;;8225161;28;20464;-70
2021/03/21 22:01:33;;;;;;;170.82;55.88;;;;;;;;;;8227452;28;20486;-70
2021/03/21 22:05:39;;;;;;;183.50;59.50;;;;;;;;;;8224768;28;20076;-69
2021/03/21 22:09:44;;;;;;;149.88;49.65;;;;;;;;;;8239547;28;20483;-69
2021/03/21 22:13:49;;;;;;;144.13;49.65;;;;;;;;;;8224655;28;20380;-69
2021/03/21 22:17:54;;;;;;;113.60;42.70;;;;;;;;;;8224534;28;20376;-71
2021/03/21 22:21:59;;;;;;;93.13;38.97;;;;;;;;;;8226910;28;20456;-69
2021/03/21 22:26:09;;;;;;;94.97;35.33;;;;;;;;;;8228330;28;20477;-70
2021/03/21 22:30:16;;;;;;;108.80;35.20;;;;;;;;;;8230898;28;20436;-70
2021/03/21 22:34:21;;;;;;;144.98;37.55;;;;;;;;;;8245120;28;20392;-70
2021/03/21 22:38:29;;;;;;;34.97;15.38;;;;;;;;;;8232615;28;20053;-70
2021/03/21 22:42:33;;;;;;;16.23;8.48;;;;;;;;;;8229014;28;20384;-70
2021/03/21 22:46:36;;;;;;;24.85;10.07;;;;;;;;;;8229619;28;20340;-71
2021/03/21 22:50:42;;;;;;;18.50;7.95;;;;;;;;;;8232248;28;20478;-69
2021/03/21 22:54:48;;;;;;;19.17;9.05;;;;;;;;;;8229609;28;20461;-70
2021/03/21 22:58:53;;;;;;;12.48;6.70;;;;;;;;;;8230607;28;20119;-70
2021/03/21 23:02:58;;;;;;;34.53;11.82;;;;;;;;;;8230438;28;20392;-69
2021/03/21 23:07:03;;;;;;;35.40;14.20;;;;;;;;;;8229158;28;20472;-71
2021/03/21 23:11:08;;;;;;;29.40;12.57;;;;;;;;;;8228904;28;20050;-74
2021/03/21 23:15:17;;;;;;;18.70;9.68;;;;;;;;;;8228158;28;20472;-71
2021/03/21 23:19:27;;;;;;;53.47;17.77;;;;;;;;;;8229833;28;20089;-70
2021/03/21 23:23:31;;;;;;;39.78;13.48;;;;;;;;;;8227746;28;20826;-70
2021/03/21 23:27:39;;;;;;;22.70;9.85;;;;;;;;;;8212224;28;20072;-71
2021/03/21 23:31:45;;;;;;;66.72;19.77;;;;;;;;;;8245390;28;20515;-70
2021/03/21 23:35:50;;;;;;;66.40;21.58;;;;;;;;;;8228118;28;20338;-70
2021/03/21 23:39:54;;;;;;;47.85;17.58;;;;;;;;;;8229366;28;20456;-70
2021/03/21 23:43:59;;;;;;;23.73;10.60;;;;;;;;;;8228389;28;20061;-70
2021/03/21 23:48:06;;;;;;;32.42;12.90;;;;;;;;;;8228301;28;20423;-71
2021/03/21 23:52:11;;;;;;;26.23;11.05;;;;;;;;;;8226932;28;20376;-70
2021/03/21 23:56:15;;;;;;;22.88;10.68;;;;;;;;;;8228529;28;20049;-70
